sensor_id;sensor_type;location;lat;lon;timestamp;temperature;humidity
1347;DHT22;667;48.796;9.480;2023-08-12T00:02:12;21.80;82.20
1347;DHT22;667;48.796;9.480;2023-08-12T00:04:38;21.80;82.20
1347;DHT22;667;48.796;9.480;2023-08-12T00:07:04;21.70;82.10
1347;DHT22;667;48.796;9.480;2023-08-12T00:09:30;21.70;82.10
1347;DHT22;667;48.796;9.480;2023-08-12T00:11:55;21.70;82.90
1347;DHT22;667;48.796;9.480;2023-08-12T00:14:21;21.70;82.10
1347;DHT22;667;48.796;9.480;2023-08-12T00:16:46;21.70;82.10
1347;DHT22;667;48.796;9.480;2023-08-12T00:19:12;21.60;82.20
1347;DHT22;667;48.796;9.480;2023-08-12T00:21:38;21.60;82.40
1347;DHT22;667;48.796;9.480;2023-08-12T00:24:04;21.60;82.50
1347;DHT22;667;48.796;9.480;2023-08-12T00:26:30;21.60;82.60
1347;DHT22;667;48.796;9.480;2023-08-12T00:28:56;21.60;82.70
1347;DHT22;667;48.796;9.480;2023-08-12T00:31:21;21.60;82.70
1347;DHT22;667;48.796;9.480;2023-08-12T00:33:47;21.50;82.50
1347;DHT22;667;48.796;9.480;2023-08-12T00:36:12;21.50;82.60
1347;DHT22;667;48.796;9.480;2023-08-12T00:38:38;21.50;82.60
1347;DHT22;667;48.796;9.480;2023-08-12T00:41:03;21.50;82.60
1347;DHT22;667;48.796;9.480;2023-08-12T00:43:29;21.50;82.60
1347;DHT22;667;48.796;9.480;2023-08-12T00:45:55;21.50;82.80
1347;DHT22;667;48.796;9.480;2023-08-12T00:48:20;21.40;82.70
1347;DHT22;667;48.796;9.480;2023-08-12T00:50:46;21.40;82.80
1347;DHT22;667;48.796;9.480;2023-08-12T00:53:13;21.40;82.70
1347;DHT22;667;48.796;9.480;2023-08-12T00:55:40;21.40;82.80
1347;DHT22;667;48.796;9.480;2023-08-12T00:58:06;21.40;83.00
1347;DHT22;667;48.796;9.480;2023-08-12T01:00:33;21.40;82.90
1347;DHT22;667;48.796;9.480;2023-08-12T01:03:00;21.30;82.90
1347;DHT22;667;48.796;9.480;2023-08-12T01:05:26;21.30;82.90
1347;DHT22;667;48.796;9.480;2023-08-12T01:07:51;21.30;83.10
1347;DHT22;667;48.796;9.480;2023-08-12T01:10:20;21.30;83.20
1347;DHT22;667;48.796;9.480;2023-08-12T01:12:52;21.30;83.20
1347;DHT22;667;48.796;9.480;2023-08-12T01:15:23;21.20;83.20
1347;DHT22;667;48.796;9.480;2023-08-12T01:17:50;21.20;83.20
1347;DHT22;667;48.796;9.480;2023-08-12T01:20:20;21.20;83.40
1347;DHT22;667;48.796;9.480;2023-08-12T01:22:57;21.20;83.40
1347;DHT22;667;48.796;9.480;2023-08-12T01:25:24;21.20;83.30
1347;DHT22;667;48.796;9.480;2023-08-12T01:27:50;21.20;83.40
1347;DHT22;667;48.796;9.480;2023-08-12T01:30:16;21.10;83.30
1347;DHT22;667;48.796;9.480;2023-08-12T01:32:52;21.10;83.30
1347;DHT22;667;48.796;9.480;2023-08-12T01:35:28;21.10;83.30
1347;DHT22;667;48.796;9.480;2023-08-12T01:37:57;21.10;83.50
1347;DHT22;667;48.796;9.480;2023-08-12T01:40:24;21.10;83.60
1347;DHT22;667;48.796;9.480;2023-08-12T01:42:50;21.00;83.50
1347;DHT22;667;48.796;9.480;2023-08-12T01:45:18;21.10;83.60
1347;DHT22;667;48.796;9.480;2023-08-12T01:47:44;21.00;83.50
1347;DHT22;667;48.796;9.480;2023-08-12T01:50:10;21.00;83.50
1347;DHT22;667;48.796;9.480;2023-08-12T01:52:35;21.00;83.60
1347;DHT22;667;48.796;9.480;2023-08-12T01:55:01;21.00;83.50
1347;DHT22;667;48.796;9.480;2023-08-12T01:57:27;20.90;83.40
1347;DHT22;667;48.796;9.480;2023-08-12T01:59:52;20.90;83.50
1347;DHT22;667;48.796;9.480;2023-08-12T02:02:18;20.90;83.60
1347;DHT22;667;48.796;9.480;2023-08-12T02:04:43;20.90;83.60
1347;DHT22;667;48.796;9.480;2023-08-12T02:07:10;20.90;83.70
1347;DHT22;667;48.796;9.480;2023-08-12T02:09:35;20.80;83.60
1347;DHT22;667;48.796;9.480;2023-08-12T02:12:01;20.80;83.90
1347;DHT22;667;48.796;9.480;2023-08-12T02:14:26;20.80;84.00
1347;DHT22;667;48.796;9.480;2023-08-12T02:16:52;20.80;84.10
1347;DHT22;667;48.796;9.480;2023-08-12T02:19:18;20.80;84.00
1347;DHT22;667;48.796;9.480;2023-08-12T02:21:43;20.70;84.00
1347;DHT22;667;48.796;9.480;2023-08-12T02:24:09;20.70;84.10
1347;DHT22;667;48.796;9.480;2023-08-12T02:26:35;20.70;84.10
1347;DHT22;667;48.796;9.480;2023-08-12T02:29:00;20.70;84.20
1347;DHT22;667;48.796;9.480;2023-08-12T02:31:26;20.70;84.30
1347;DHT22;667;48.796;9.480;2023-08-12T02:33:52;20.70;84.40
1347;DHT22;667;48.796;9.480;2023-08-12T02:36:17;20.70;84.50
1347;DHT22;667;48.796;9.480;2023-08-12T02:38:43;20.70;84.70
1347;DHT22;667;48.796;9.480;2023-08-12T02:41:08;20.70;84.90
1347;DHT22;667;48.796;9.480;2023-08-12T02:43:34;20.70;85.00
1347;DHT22;667;48.796;9.480;2023-08-12T02:46:00;20.70;85.10
1347;DHT22;667;48.796;9.480;2023-08-12T02:48:26;20.70;85.20
1347;DHT22;667;48.796;9.480;2023-08-12T02:50:51;20.70;85.30
1347;DHT22;667;48.796;9.480;2023-08-12T02:53:17;20.80;85.50
1347;DHT22;667;48.796;9.480;2023-08-12T02:55:44;20.80;85.70
1347;DHT22;667;48.796;9.480;2023-08-12T02:58:10;20.80;85.70
1347;DHT22;667;48.796;9.480;2023-08-12T03:00:35;20.80;85.90
1347;DHT22;667;48.796;9.480;2023-08-12T03:03:01;20.80;85.80
1347;DHT22;667;48.796;9.480;2023-08-12T03:05:26;20.80;85.80
1347;DHT22;667;48.796;9.480;2023-08-12T03:07:52;20.80;85.80
1347;DHT22;667;48.796;9.480;2023-08-12T03:10:18;20.90;85.90
1347;DHT22;667;48.796;9.480;2023-08-12T03:12:44;20.90;85.90
1347;DHT22;667;48.796;9.480;2023-08-12T03:15:10;20.90;85.80
1347;DHT22;667;48.796;9.480;2023-08-12T03:17:36;20.90;85.90
1347;DHT22;667;48.796;9.480;2023-08-12T03:20:05;20.90;85.90
1347;DHT22;667;48.796;9.480;2023-08-12T03:22:31;20.90;85.80
1347;DHT22;667;48.796;9.480;2023-08-12T03:24:56;20.90;85.80
1347;DHT22;667;48.796;9.480;2023-08-12T03:27:22;20.90;85.90
1347;DHT22;667;48.796;9.480;2023-08-12T03:29:47;20.90;85.90
1347;DHT22;667;48.796;9.480;2023-08-12T03:32:13;20.90;86.00
1347;DHT22;667;48.796;9.480;2023-08-12T03:34:39;20.90;86.00
1347;DHT22;667;48.796;9.480;2023-08-12T03:37:04;20.90;86.00
1347;DHT22;667;48.796;9.480;2023-08-12T03:39:30;20.90;86.10
1347;DHT22;667;48.796;9.480;2023-08-12T03:41:56;20.90;86.10
1347;DHT22;667;48.796;9.480;2023-08-12T03:44:21;20.90;86.10
1347;DHT22;667;48.796;9.480;2023-08-12T03:46:47;20.90;86.20
1347;DHT22;667;48.796;9.480;2023-08-12T03:49:12;20.90;86.20
1347;DHT22;667;48.796;9.480;2023-08-12T03:51:38;20.90;86.30
1347;DHT22;667;48.796;9.480;2023-08-12T03:54:03;20.90;86.40
1347;DHT22;667;48.796;9.480;2023-08-12T03:56:29;20.90;86.40
1347;DHT22;667;48.796;9.480;2023-08-12T03:58:55;20.90;86.50
1347;DHT22;667;48.796;9.480;2023-08-12T04:01:20;20.90;86.60
1347;DHT22;667;48.796;9.480;2023-08-12T04:03:46;20.90;86.60
1347;DHT22;667;48.796;9.480;2023-08-12T04:06:12;20.90;86.70
1347;DHT22;667;48.796;9.480;2023-08-12T04:08:38;20.90;86.80
1347;DHT22;667;48.796;9.480;2023-08-12T04:11:04;20.90;86.80
1347;DHT22;667;48.796;9.480;2023-08-12T04:13:29;20.90;87.00
1347;DHT22;667;48.796;9.480;2023-08-12T04:15:55;20.90;87.00
1347;DHT22;667;48.796;9.480;2023-08-12T04:18:21;20.90;87.10
1347;DHT22;667;48.796;9.480;2023-08-12T04:20:49;20.90;87.20
1347;DHT22;667;48.796;9.480;2023-08-12T04:23:15;20.90;87.30
1347;DHT22;667;48.796;9.480;2023-08-12T04:25:43;20.90;87.40
1347;DHT22;667;48.796;9.480;2023-08-12T04:28:10;20.90;87.50
1347;DHT22;667;48.796;9.480;2023-08-12T04:30:41;20.90;87.60
1347;DHT22;667;48.796;9.480;2023-08-12T04:33:06;20.90;87.60
1347;DHT22;667;48.796;9.480;2023-08-12T04:35:32;20.90;87.70
1347;DHT22;667;48.796;9.480;2023-08-12T04:37:57;21.00;87.70
1347;DHT22;667;48.796;9.480;2023-08-12T04:40:23;21.00;87.80
1347;DHT22;667;48.796;9.480;2023-08-12T04:42:49;21.00;87.80
1347;DHT22;667;48.796;9.480;2023-08-12T04:45:14;21.00;87.70
1347;DHT22;667;48.796;9.480;2023-08-12T04:47:40;21.00;87.70
1347;DHT22;667;48.796;9.480;2023-08-12T04:50:06;21.00;88.40
1347;DHT22;667;48.796;9.480;2023-08-12T04:52:32;21.00;87.80
1347;DHT22;667;48.796;9.480;2023-08-12T04:54:57;21.10;87.90
1347;DHT22;667;48.796;9.480;2023-08-12T04:57:23;21.00;87.90
1347;DHT22;667;48.796;9.480;2023-08-12T04:59:48;21.10;87.90
1347;DHT22;667;48.796;9.480;2023-08-12T05:02:14;21.10;88.00
1347;DHT22;667;48.796;9.480;2023-08-12T05:04:39;21.10;88.00
1347;DHT22;667;48.796;9.480;2023-08-12T05:07:05;21.10;88.20
1347;DHT22;667;48.796;9.480;2023-08-12T05:09:31;21.10;88.40
1347;DHT22;667;48.796;9.480;2023-08-12T05:11:56;21.10;88.50
1347;DHT22;667;48.796;9.480;2023-08-12T05:14:22;21.10;88.60
1347;DHT22;667;48.796;9.480;2023-08-12T05:16:48;21.10;88.60
1347;DHT22;667;48.796;9.480;2023-08-12T05:19:13;21.10;88.70
1347;DHT22;667;48.796;9.480;2023-08-12T05:21:39;21.10;88.90
1347;DHT22;667;48.796;9.480;2023-08-12T05:24:04;21.10;89.00
1347;DHT22;667;48.796;9.480;2023-08-12T05:26:32;21.10;88.90
1347;DHT22;667;48.796;9.480;2023-08-12T05:28:57;21.10;88.70
1347;DHT22;667;48.796;9.480;2023-08-12T05:31:23;21.20;88.90
1347;DHT22;667;48.796;9.480;2023-08-12T05:33:48;21.10;89.10
1347;DHT22;667;48.796;9.480;2023-08-12T05:36:14;21.10;89.30
1347;DHT22;667;48.796;9.480;2023-08-12T05:38:39;21.10;89.50
1347;DHT22;667;48.796;9.480;2023-08-12T05:41:05;21.20;89.60
1347;DHT22;667;48.796;9.480;2023-08-12T05:43:32;21.20;89.50
1347;DHT22;667;48.796;9.480;2023-08-12T05:45:58;21.20;89.40
1347;DHT22;667;48.796;9.480;2023-08-12T05:48:23;21.20;89.40
1347;DHT22;667;48.796;9.480;2023-08-12T05:50:49;21.30;89.60
1347;DHT22;667;48.796;9.480;2023-08-12T05:53:14;21.30;89.60
1347;DHT22;667;48.796;9.480;2023-08-12T05:55:40;21.30;89.40
1347;DHT22;667;48.796;9.480;2023-08-12T05:58:06;21.30;89.30
1347;DHT22;667;48.796;9.480;2023-08-12T06:00:32;21.30;89.40
1347;DHT22;667;48.796;9.480;2023-08-12T06:02:57;21.40;89.50
1347;DHT22;667;48.796;9.480;2023-08-12T06:05:23;21.40;89.40
1347;DHT22;667;48.796;9.480;2023-08-12T06:07:48;21.40;89.40
1347;DHT22;667;48.796;9.480;2023-08-12T06:10:14;21.40;89.30
1347;DHT22;667;48.796;9.480;2023-08-12T06:12:40;21.40;89.10
1347;DHT22;667;48.796;9.480;2023-08-12T06:15:06;21.50;89.20
1347;DHT22;667;48.796;9.480;2023-08-12T06:17:31;21.50;89.20
1347;DHT22;667;48.796;9.480;2023-08-12T06:19:57;21.50;89.40
1347;DHT22;667;48.796;9.480;2023-08-12T06:22:22;21.60;89.60
1347;DHT22;667;48.796;9.480;2023-08-12T06:24:48;21.60;89.60
1347;DHT22;667;48.796;9.480;2023-08-12T06:27:13;21.60;89.70
1347;DHT22;667;48.796;9.480;2023-08-12T06:29:39;21.70;89.90
1347;DHT22;667;48.796;9.480;2023-08-12T06:32:05;21.70;89.70
1347;DHT22;667;48.796;9.480;2023-08-12T06:34:30;21.70;89.40
1347;DHT22;667;48.796;9.480;2023-08-12T06:36:56;21.80;89.40
1347;DHT22;667;48.796;9.480;2023-08-12T06:39:22;21.80;89.30
1347;DHT22;667;48.796;9.480;2023-08-12T06:41:47;21.80;89.20
1347;DHT22;667;48.796;9.480;2023-08-12T06:44:13;21.80;89.00
1347;DHT22;667;48.796;9.480;2023-08-12T06:46:38;21.90;89.00
1347;DHT22;667;48.796;9.480;2023-08-12T06:49:04;21.90;89.00
1347;DHT22;667;48.796;9.480;2023-08-12T06:51:29;21.90;89.10
1347;DHT22;667;48.796;9.480;2023-08-12T06:53:55;22.00;89.00
1347;DHT22;667;48.796;9.480;2023-08-12T06:56:20;22.00;88.80
1347;DHT22;667;48.796;9.480;2023-08-12T06:58:46;22.00;88.40
1347;DHT22;667;48.796;9.480;2023-08-12T07:01:12;22.00;88.00
1347;DHT22;667;48.796;9.480;2023-08-12T07:03:37;22.00;88.00
1347;DHT22;667;48.796;9.480;2023-08-12T07:06:03;22.10;87.70
1347;DHT22;667;48.796;9.480;2023-08-12T07:08:28;22.10;87.40
1347;DHT22;667;48.796;9.480;2023-08-12T07:10:54;22.10;87.30
1347;DHT22;667;48.796;9.480;2023-08-12T07:13:19;22.20;87.20
1347;DHT22;667;48.796;9.480;2023-08-12T07:15:45;22.20;87.20
1347;DHT22;667;48.796;9.480;2023-08-12T07:18:11;22.20;87.20
1347;DHT22;667;48.796;9.480;2023-08-12T07:20:36;22.30;87.50
1347;DHT22;667;48.796;9.480;2023-08-12T07:23:02;22.30;87.50
1347;DHT22;667;48.796;9.480;2023-08-12T07:25:27;22.40;87.30
1347;DHT22;667;48.796;9.480;2023-08-12T07:27:53;22.50;87.00
1347;DHT22;667;48.796;9.480;2023-08-12T07:30:18;22.50;86.50
1347;DHT22;667;48.796;9.480;2023-08-12T07:32:44;22.60;86.20
1347;DHT22;667;48.796;9.480;2023-08-12T07:35:10;22.70;85.90
1347;DHT22;667;48.796;9.480;2023-08-12T07:37:36;22.70;85.70
1347;DHT22;667;48.796;9.480;2023-08-12T07:40:01;22.80;85.60
1347;DHT22;667;48.796;9.480;2023-08-12T07:42:28;22.90;85.30
1347;DHT22;667;48.796;9.480;2023-08-12T07:44:54;22.90;85.10
1347;DHT22;667;48.796;9.480;2023-08-12T07:47:19;23.10;85.50
1347;DHT22;667;48.796;9.480;2023-08-12T07:49:45;23.10;85.60
1347;DHT22;667;48.796;9.480;2023-08-12T07:52:10;23.20;85.60
1347;DHT22;667;48.796;9.480;2023-08-12T07:54:36;23.20;85.40
1347;DHT22;667;48.796;9.480;2023-08-12T07:57:02;23.30;85.30
1347;DHT22;667;48.796;9.480;2023-08-12T07:59:28;23.40;85.20
1347;DHT22;667;48.796;9.480;2023-08-12T08:01:53;23.40;85.10
1347;DHT22;667;48.796;9.480;2023-08-12T08:04:19;23.60;85.40
1347;DHT22;667;48.796;9.480;2023-08-12T08:06:44;23.60;85.20
1347;DHT22;667;48.796;9.480;2023-08-12T08:09:10;23.70;85.20
1347;DHT22;667;48.796;9.480;2023-08-12T08:11:36;23.80;85.40
1347;DHT22;667;48.796;9.480;2023-08-12T08:14:02;24.00;85.10
1347;DHT22;667;48.796;9.480;2023-08-12T08:16:27;24.10;85.00
1347;DHT22;667;48.796;9.480;2023-08-12T08:18:53;24.20;84.30
1347;DHT22;667;48.796;9.480;2023-08-12T08:21:19;24.30;84.20
1347;DHT22;667;48.796;9.480;2023-08-12T08:23:45;24.30;83.20
1347;DHT22;667;48.796;9.480;2023-08-12T08:26:10;24.40;82.50
1347;DHT22;667;48.796;9.480;2023-08-12T08:28:37;24.50;82.00
1347;DHT22;667;48.796;9.480;2023-08-12T08:31:03;24.60;81.80
1347;DHT22;667;48.796;9.480;2023-08-12T08:33:29;24.70;80.60
1347;DHT22;667;48.796;9.480;2023-08-12T08:35:55;24.80;80.20
1347;DHT22;667;48.796;9.480;2023-08-12T08:38:20;24.90;79.90
1347;DHT22;667;48.796;9.480;2023-08-12T08:40:48;25.00;79.20
1347;DHT22;667;48.796;9.480;2023-08-12T08:43:15;25.10;79.20
1347;DHT22;667;48.796;9.480;2023-08-12T08:45:44;25.20;78.90
1347;DHT22;667;48.796;9.480;2023-08-12T08:48:11;25.20;78.20
1347;DHT22;667;48.796;9.480;2023-08-12T08:50:37;25.30;78.00
1347;DHT22;667;48.796;9.480;2023-08-12T08:53:06;25.40;77.90
1347;DHT22;667;48.796;9.480;2023-08-12T08:55:32;25.50;77.40
1347;DHT22;667;48.796;9.480;2023-08-12T08:57:57;25.60;76.70
1347;DHT22;667;48.796;9.480;2023-08-12T09:00:24;25.70;77.40
1347;DHT22;667;48.796;9.480;2023-08-12T09:02:50;25.70;77.00
1347;DHT22;667;48.796;9.480;2023-08-12T09:05:17;25.80;76.40
1347;DHT22;667;48.796;9.480;2023-08-12T09:07:44;25.90;75.70
1347;DHT22;667;48.796;9.480;2023-08-12T09:10:11;26.00;75.40
1347;DHT22;667;48.796;9.480;2023-08-12T09:12:37;26.10;75.30
1347;DHT22;667;48.796;9.480;2023-08-12T09:15:03;26.20;75.00
1347;DHT22;667;48.796;9.480;2023-08-12T09:17:30;26.30;73.90
1347;DHT22;667;48.796;9.480;2023-08-12T09:19:55;26.40;73.70
1347;DHT22;667;48.796;9.480;2023-08-12T09:22:24;26.50;73.60
1347;DHT22;667;48.796;9.480;2023-08-12T09:24:57;26.70;73.50
1347;DHT22;667;48.796;9.480;2023-08-12T09:27:23;26.80;73.50
1347;DHT22;667;48.796;9.480;2023-08-12T09:29:50;26.80;73.50
1347;DHT22;667;48.796;9.480;2023-08-12T09:32:20;27.00;73.20
1347;DHT22;667;48.796;9.480;2023-08-12T09:34:50;27.10;72.10
1347;DHT22;667;48.796;9.480;2023-08-12T09:37:17;27.20;71.80
1347;DHT22;667;48.796;9.480;2023-08-12T09:39:43;27.40;71.00
1347;DHT22;667;48.796;9.480;2023-08-12T09:42:10;27.50;70.40
1347;DHT22;667;48.796;9.480;2023-08-12T09:44:37;27.60;69.90
1347;DHT22;667;48.796;9.480;2023-08-12T09:47:03;27.70;69.20
1347;DHT22;667;48.796;9.480;2023-08-12T09:49:28;27.70;69.10
1347;DHT22;667;48.796;9.480;2023-08-12T09:51:55;27.80;68.50
1347;DHT22;667;48.796;9.480;2023-08-12T09:54:21;27.90;67.90
1347;DHT22;667;48.796;9.480;2023-08-12T09:56:48;28.00;67.30
1347;DHT22;667;48.796;9.480;2023-08-12T09:59:18;28.20;68.50
1347;DHT22;667;48.796;9.480;2023-08-12T10:01:45;28.50;66.80
1347;DHT22;667;48.796;9.480;2023-08-12T10:04:11;28.70;66.50
1347;DHT22;667;48.796;9.480;2023-08-12T10:06:40;28.80;66.20
1347;DHT22;667;48.796;9.480;2023-08-12T10:09:07;29.00;63.80
1347;DHT22;667;48.796;9.480;2023-08-12T10:11:37;29.20;61.20
1347;DHT22;667;48.796;9.480;2023-08-12T10:14:04;29.40;60.40
1347;DHT22;667;48.796;9.480;2023-08-12T10:16:29;29.60;59.20
1347;DHT22;667;48.796;9.480;2023-08-12T10:18:57;29.70;58.30
1347;DHT22;667;48.796;9.480;2023-08-12T10:21:23;29.80;58.00
1347;DHT22;667;48.796;9.480;2023-08-12T10:23:50;29.80;55.90
1347;DHT22;667;48.796;9.480;2023-08-12T10:26:17;29.80;56.60
1347;DHT22;667;48.796;9.480;2023-08-12T10:28:43;29.80;57.70
1347;DHT22;667;48.796;9.480;2023-08-12T10:31:10;29.70;58.10
1347;DHT22;667;48.796;9.480;2023-08-12T10:33:40;29.70;58.20
1347;DHT22;667;48.796;9.480;2023-08-12T10:36:06;29.70;58.00
1347;DHT22;667;48.796;9.480;2023-08-12T10:38:32;29.60;58.80
1347;DHT22;667;48.796;9.480;2023-08-12T10:41:23;29.50;59.40
1347;DHT22;667;48.796;9.480;2023-08-12T10:43:56;29.40;60.10
1347;DHT22;667;48.796;9.480;2023-08-12T10:46:28;29.40;60.10
1347;DHT22;667;48.796;9.480;2023-08-12T10:49:01;29.30;60.70
1347;DHT22;667;48.796;9.480;2023-08-12T10:51:39;29.30;61.40
1347;DHT22;667;48.796;9.480;2023-08-12T10:54:22;29.30;61.50
1347;DHT22;667;48.796;9.480;2023-08-12T10:59:50;29.40;59.60
1347;DHT22;667;48.796;9.480;2023-08-12T11:04:59;29.40;60.00
1347;DHT22;667;48.796;9.480;2023-08-12T11:07:59;29.40;59.90
1347;DHT22;667;48.796;9.480;2023-08-12T11:10:27;29.40;59.90
1347;DHT22;667;48.796;9.480;2023-08-12T11:15:40;29.30;60.90
1347;DHT22;667;48.796;9.480;2023-08-12T11:18:13;29.30;61.30
1347;DHT22;667;48.796;9.480;2023-08-12T11:20:39;29.30;59.80
1347;DHT22;667;48.796;9.480;2023-08-12T11:23:06;29.30;59.60
1347;DHT22;667;48.796;9.480;2023-08-12T11:25:33;29.30;59.50
1347;DHT22;667;48.796;9.480;2023-08-12T11:28:00;29.30;59.20
1347;DHT22;667;48.796;9.480;2023-08-12T11:30:26;29.40;59.70
1347;DHT22;667;48.796;9.480;2023-08-12T11:32:54;29.50;61.20
1347;DHT22;667;48.796;9.480;2023-08-12T11:35:21;29.70;60.00
1347;DHT22;667;48.796;9.480;2023-08-12T11:37:51;29.90;58.90
1347;DHT22;667;48.796;9.480;2023-08-12T11:40:19;30.10;58.00
1347;DHT22;667;48.796;9.480;2023-08-12T11:42:48;30.20;56.90
1347;DHT22;667;48.796;9.480;2023-08-12T11:45:17;30.30;56.00
1347;DHT22;667;48.796;9.480;2023-08-12T11:47:43;30.40;56.70
1347;DHT22;667;48.796;9.480;2023-08-12T11:50:11;30.60;56.80
1347;DHT22;667;48.796;9.480;2023-08-12T11:52:37;30.70;56.10
1347;DHT22;667;48.796;9.480;2023-08-12T11:55:03;30.70;55.30
1347;DHT22;667;48.796;9.480;2023-08-12T11:57:30;30.90;55.10
1347;DHT22;667;48.796;9.480;2023-08-12T12:00:00;31.00;55.20
1347;DHT22;667;48.796;9.480;2023-08-12T12:02:26;31.20;54.40
1347;DHT22;667;48.796;9.480;2023-08-12T12:04:52;31.30;53.20
1347;DHT22;667;48.796;9.480;2023-08-12T12:07:23;31.40;53.60
1347;DHT22;667;48.796;9.480;2023-08-12T12:09:53;31.30;53.50
1347;DHT22;667;48.796;9.480;2023-08-12T12:12:22;31.20;53.10
1347;DHT22;667;48.796;9.480;2023-08-12T12:14:53;31.10;53.40
1347;DHT22;667;48.796;9.480;2023-08-12T12:17:25;31.00;53.90
1347;DHT22;667;48.796;9.480;2023-08-12T12:19:58;30.90;53.90
1347;DHT22;667;48.796;9.480;2023-08-12T12:22:28;30.90;54.30
1347;DHT22;667;48.796;9.480;2023-08-12T12:24:54;30.80;54.20
1347;DHT22;667;48.796;9.480;2023-08-12T12:27:20;30.80;54.20
1347;DHT22;667;48.796;9.480;2023-08-12T12:29:45;30.80;54.30
1347;DHT22;667;48.796;9.480;2023-08-12T12:32:11;30.70;54.90
1347;DHT22;667;48.796;9.480;2023-08-12T12:34:37;30.60;55.30
1347;DHT22;667;48.796;9.480;2023-08-12T12:37:02;30.40;56.10
1347;DHT22;667;48.796;9.480;2023-08-12T12:39:28;30.20;56.80
1347;DHT22;667;48.796;9.480;2023-08-12T12:41:53;30.00;57.50
1347;DHT22;667;48.796;9.480;2023-08-12T12:44:19;29.70;58.20
1347;DHT22;667;48.796;9.480;2023-08-12T12:46:44;29.60;59.30
1347;DHT22;667;48.796;9.480;2023-08-12T12:49:10;29.30;63.30
1347;DHT22;667;48.796;9.480;2023-08-12T12:51:36;29.00;65.80
1347;DHT22;667;48.796;9.480;2023-08-12T12:54:01;28.70;67.70
1347;DHT22;667;48.796;9.480;2023-08-12T12:56:27;28.40;69.20
1347;DHT22;667;48.796;9.480;2023-08-12T12:58:53;28.00;71.70
1347;DHT22;667;48.796;9.480;2023-08-12T13:01:18;27.60;73.20
1347;DHT22;667;48.796;9.480;2023-08-12T13:03:44;27.30;74.60
1347;DHT22;667;48.796;9.480;2023-08-12T13:06:10;27.10;75.90
1347;DHT22;667;48.796;9.480;2023-08-12T13:08:35;26.90;77.20
1347;DHT22;667;48.796;9.480;2023-08-12T13:11:01;26.80;78.30
1347;DHT22;667;48.796;9.480;2023-08-12T13:13:26;26.70;79.60
1347;DHT22;667;48.796;9.480;2023-08-12T13:15:52;26.60;80.60
1347;DHT22;667;48.796;9.480;2023-08-12T13:18:18;26.40;81.20
1347;DHT22;667;48.796;9.480;2023-08-12T13:20:43;26.30;81.60
1347;DHT22;667;48.796;9.480;2023-08-12T13:23:09;26.20;82.30
1347;DHT22;667;48.796;9.480;2023-08-12T13:25:35;26.10;83.20
1347;DHT22;667;48.796;9.480;2023-08-12T13:28:02;26.00;83.80
1347;DHT22;667;48.796;9.480;2023-08-12T13:30:28;25.90;84.50
1347;DHT22;667;48.796;9.480;2023-08-12T13:32:54;25.80;84.70
1347;DHT22;667;48.796;9.480;2023-08-12T13:35:20;25.80;84.80
1347;DHT22;667;48.796;9.480;2023-08-12T13:37:46;25.70;85.00
1347;DHT22;667;48.796;9.480;2023-08-12T13:40:11;25.70;85.40
1347;DHT22;667;48.796;9.480;2023-08-12T13:42:38;25.70;85.90
1347;DHT22;667;48.796;9.480;2023-08-12T13:45:04;25.70;86.40
1347;DHT22;667;48.796;9.480;2023-08-12T13:47:30;25.60;86.60
1347;DHT22;667;48.796;9.480;2023-08-12T13:49:56;25.70;87.20
1347;DHT22;667;48.796;9.480;2023-08-12T13:52:21;25.60;87.50
1347;DHT22;667;48.796;9.480;2023-08-12T13:54:47;25.50;87.70
1347;DHT22;667;48.796;9.480;2023-08-12T13:57:13;25.50;88.20
1347;DHT22;667;48.796;9.480;2023-08-12T13:59:38;25.40;88.70
1347;DHT22;667;48.796;9.480;2023-08-12T14:02:06;25.40;89.20
1347;DHT22;667;48.796;9.480;2023-08-12T14:04:31;25.40;89.60
1347;DHT22;667;48.796;9.480;2023-08-12T14:06:57;25.30;89.80
1347;DHT22;667;48.796;9.480;2023-08-12T14:09:23;25.30;90.00
1347;DHT22;667;48.796;9.480;2023-08-12T14:11:48;25.40;90.20
1347;DHT22;667;48.796;9.480;2023-08-12T14:14:14;25.40;90.30
1347;DHT22;667;48.796;9.480;2023-08-12T14:16:40;25.40;90.40
1347;DHT22;667;48.796;9.480;2023-08-12T14:19:05;25.50;90.60
1347;DHT22;667;48.796;9.480;2023-08-12T14:21:31;25.50;90.60
1347;DHT22;667;48.796;9.480;2023-08-12T14:23:56;25.60;90.70
1347;DHT22;667;48.796;9.480;2023-08-12T14:26:22;25.70;90.70
1347;DHT22;667;48.796;9.480;2023-08-12T14:28:47;25.70;90.40
1347;DHT22;667;48.796;9.480;2023-08-12T14:31:13;25.80;90.50
1347;DHT22;667;48.796;9.480;2023-08-12T14:33:38;25.90;90.50
1347;DHT22;667;48.796;9.480;2023-08-12T14:36:04;26.00;90.50
1347;DHT22;667;48.796;9.480;2023-08-12T14:38:30;26.10;90.40
1347;DHT22;667;48.796;9.480;2023-08-12T14:40:56;26.10;90.10
1347;DHT22;667;48.796;9.480;2023-08-12T14:43:22;26.20;90.10
1347;DHT22;667;48.796;9.480;2023-08-12T14:45:47;26.20;90.10
1347;DHT22;667;48.796;9.480;2023-08-12T14:48:13;26.30;90.00
1347;DHT22;667;48.796;9.480;2023-08-12T14:50:40;26.30;89.60
1347;DHT22;667;48.796;9.480;2023-08-12T14:53:07;26.40;90.20
1347;DHT22;667;48.796;9.480;2023-08-12T14:55:32;26.40;90.40
1347;DHT22;667;48.796;9.480;2023-08-12T14:57:58;26.50;90.10
1347;DHT22;667;48.796;9.480;2023-08-12T15:00:24;26.50;89.00
1347;DHT22;667;48.796;9.480;2023-08-12T15:02:49;26.50;89.30
1347;DHT22;667;48.796;9.480;2023-08-12T15:05:15;26.60;89.70
1347;DHT22;667;48.796;9.480;2023-08-12T15:07:42;26.60;89.30
1347;DHT22;667;48.796;9.480;2023-08-12T15:10:08;26.60;88.60
1347;DHT22;667;48.796;9.480;2023-08-12T15:12:34;26.60;86.90
1347;DHT22;667;48.796;9.480;2023-08-12T15:15:00;26.60;86.50
1347;DHT22;667;48.796;9.480;2023-08-12T15:17:25;26.60;86.30
1347;DHT22;667;48.796;9.480;2023-08-12T15:19:51;26.60;86.80
1347;DHT22;667;48.796;9.480;2023-08-12T15:22:16;26.50;87.90
1347;DHT22;667;48.796;9.480;2023-08-12T15:24:43;26.60;86.90
1347;DHT22;667;48.796;9.480;2023-08-12T15:27:08;26.50;86.30
1347;DHT22;667;48.796;9.480;2023-08-12T15:29:34;26.50;85.40
1347;DHT22;667;48.796;9.480;2023-08-12T15:32:00;26.50;84.70
1347;DHT22;667;48.796;9.480;2023-08-12T15:34:25;26.50;83.70
1347;DHT22;667;48.796;9.480;2023-08-12T15:36:52;26.50;83.10
1347;DHT22;667;48.796;9.480;2023-08-12T15:39:18;26.50;82.90
1347;DHT22;667;48.796;9.480;2023-08-12T15:41:44;26.50;83.00
1347;DHT22;667;48.796;9.480;2023-08-12T15:44:12;26.50;83.30
1347;DHT22;667;48.796;9.480;2023-08-12T15:46:39;26.50;83.70
1347;DHT22;667;48.796;9.480;2023-08-12T15:49:05;26.50;84.30
1347;DHT22;667;48.796;9.480;2023-08-12T15:51:33;26.50;84.60
1347;DHT22;667;48.796;9.480;2023-08-12T15:53:59;26.50;84.30
1347;DHT22;667;48.796;9.480;2023-08-12T15:56:25;26.50;84.40
1347;DHT22;667;48.796;9.480;2023-08-12T15:58:51;26.40;85.10
1347;DHT22;667;48.796;9.480;2023-08-12T16:01:17;26.40;85.70
1347;DHT22;667;48.796;9.480;2023-08-12T16:03:43;26.30;86.50
1347;DHT22;667;48.796;9.480;2023-08-12T16:06:08;26.30;87.10
1347;DHT22;667;48.796;9.480;2023-08-12T16:08:34;26.30;87.80
1347;DHT22;667;48.796;9.480;2023-08-12T16:11:00;26.30;88.70
1347;DHT22;667;48.796;9.480;2023-08-12T16:13:25;26.20;89.70
1347;DHT22;667;48.796;9.480;2023-08-12T16:15:51;26.20;90.10
1347;DHT22;667;48.796;9.480;2023-08-12T16:18:16;26.20;90.30
1347;DHT22;667;48.796;9.480;2023-08-12T16:20:42;26.10;90.50